Ksl Seville — VRNZ7 — position and weather

sailwx.info

Track history (hours):
 
Tides and Currents Weather Stations Pressure Air Temp Water Temp Dewpoint Dewpoint Depression Visibility Wind Speed Wind Dir Waves Ship Positions

Ksl Seville

Last reported at 2018-May-12 15:41 UTC. Time now 2018-May-23 15:11 UTC.
Position N 26°51' E 123°41'.
Warning: this ship's position is 10 days out of date.

Length 292 m; draft 7.7 m.

Type: Cargo ship. MMSI: 477289700.

Date/timePositionNaut miles runAvg speedWind from/ knotsBaromVisibWave heightAir tempDewpointWater temp
2018-May-12 15:41N 26°51' E 123°41'213.9
2018-May-12 15:30N 26°53' E 123°40'713.9
2018-May-12 15:00N 26°59' E 123°37'  
2018-May-09 14:36N 31°04' E 122°30'1 4.8
2018-May-09 14:25N 31°05' E 122°29'3 6.6
2018-May-09 14:00N 31°06' E 122°26'611.9
2018-May-09 13:30N 31°06' E 122°19'713.8
2018-May-09 13:00N 31°10' E 122°12'714.5
2018-May-09 12:30N 31°14' E 122°06'814.5
2018-May-09 11:59N 31°15' E 121°57'714.4
2018-May-09 11:30N 31°17' E 121°49'610.6
2018-May-09 10:54N 31°19' E 121°42'13 8.0
2018-May-09 09:16N 31°26' E 121°29'1 4.6
2018-May-09 08:56N 31°27' E 121°28'3 6.3
2018-May-09 08:28N 31°30' E 121°26'4 8.6
2018-May-09 08:00N 31°32' E 121°22'510.3
2018-May-09 07:30N 31°35' E 121°17'5 9.6
2018-May-09 07:00N 31°39' E 121°13'4 9.0
2018-May-09 06:30N 31°42' E 121°09'5 8.9
2018-May-09 06:00N 31°45' E 121°05'5 8.1
2018-May-09 05:20N 31°47' E 120°59'3 9.2
2018-May-09 05:00N 31°47' E 120°56'  
2018-May-06 00:46N 31°46' E 121°03'310.0
2018-May-06 00:30N 31°45' E 121°06'4 7.8
2018-May-06 00:00N 31°42' E 121°09'611.4
2018-May-05 23:30N 31°38' E 121°15'2 2.4
2018-May-05 22:51N 31°38' E 121°16'0 0.3
2018-May-05 22:27N 31°38' E 121°16'0 0.1
2018-May-05 21:57N 31°38' E 121°16'0 0.0
2018-May-05 21:30N 31°38' E 121°16'0 0.0
2018-May-05 21:00N 31°38' E 121°16'0 0.0
2018-May-05 20:27N 31°38' E 121°16'0 0.0
2018-May-05 20:00N 31°38' E 121°16'0 0.0
2018-May-05 19:30N 31°38' E 121°16'0 0.1
2018-May-05 19:00N 31°38' E 121°16'0 0.0
2018-May-05 18:30N 31°38' E 121°16'0 0.0
2018-May-05 17:57N 31°38' E 121°16'0 0.3
2018-May-05 17:30N 31°38' E 121°16'0 0.4
2018-May-05 17:00N 31°38' E 121°16'0 0.1
2018-May-05 16:27N 31°38' E 121°16'0 0.0
2018-May-05 16:00N 31°38' E 121°16'0 0.0
2018-May-05 15:30N 31°38' E 121°16'0 0.0
2018-May-05 15:00N 31°38' E 121°16'0 0.0
2018-May-05 14:30N 31°38' E 121°16'0 0.0
2018-May-05 13:57N 31°38' E 121°16'0 0.0
2018-May-05 13:30N 31°38' E 121°16'0 0.0
2018-May-05 12:57N 31°38' E 121°16'0 0.0
2018-May-05 12:27N 31°38' E 121°16'0 0.0
2018-May-05 12:00N 31°38' E 121°16'0 0.1
2018-May-05 11:30N 31°38' E 121°16'0 0.1
2018-May-05 11:00N 31°38' E 121°16'0 0.3
2018-May-05 10:27N 31°38' E 121°16'0 0.3
2018-May-05 09:57N 31°38' E 121°16'0 0.1
2018-May-05 09:27N 31°38' E 121°16'0 0.7
2018-May-05 09:01N 31°38' E 121°16'3 6.9
2018-May-05 08:30N 31°35' E 121°18'612.1
2018-May-05 08:00N 31°31' E 121°24'611.4
2018-May-05 07:30N 31°27' E 121°29'5 9.1
2018-May-05 07:00N 31°24' E 121°33'4 8.6
2018-May-05 06:30N 31°22' E 121°38'16 9.5
2018-May-05 04:50N 31°16' E 121°55'18 9.6
2018-May-05 02:59N 31°09' E 122°14'4 6.8
2018-May-05 02:24N 31°07' E 122°17'3 6.5
2018-May-05 02:00N 31°06' E 122°20'5 9.6
2018-May-05 01:30N 31°06' E 122°26'4 6.7
2018-May-05 00:58N 31°07' E 122°30'3 7.2
2018-May-05 00:30N 31°07' E 122°34'3 5.1
2018-May-04 23:54N 31°07' E 122°38'2 6.2
2018-May-04 23:30N 31°07' E 122°40'3 6.5
2018-May-04 23:00N 31°07' E 122°44'4 7.2
2018-May-04 22:23N 31°11' E 122°47'0 0.5
2018-May-04 21:28N 31°11' E 122°48'0 0.1
2018-May-04 20:55N 31°11' E 122°48'0 0.1
2018-May-04 20:28N 31°11' E 122°48'0 0.1
2018-May-04 19:58N 31°11' E 122°47'0 0.1
2018-May-04 19:28N 31°11' E 122°47'0 0.1
2018-May-04 18:58N 31°11' E 122°47'0 0.0
2018-May-04 18:28N 31°11' E 122°47'0 0.1
2018-May-04 17:55N 31°11' E 122°47'0 0.1
2018-May-04 17:22N 31°11' E 122°47'0 0.0
2018-May-04 16:58N 31°11' E 122°47'0 0.1
2018-May-04 16:28N 31°11' E 122°47'0 0.2
2018-May-04 15:55N 31°11' E 122°47'0 0.0
2018-May-04 15:25N 31°11' E 122°47'0 0.0
2018-May-04 14:58N 31°11' E 122°47'0 0.1
2018-May-04 14:28N 31°11' E 122°47'0 0.3
2018-May-04 13:58N 31°11' E 122°47'0 0.3
2018-May-04 13:25N 31°11' E 122°47'0 0.2
2018-May-04 12:58N 31°11' E 122°47'0 0.0
2018-May-04 12:04N 31°11' E 122°47'0 0.1
2018-May-04 10:52N 31°11' E 122°48'0 0.1
2018-May-04 09:31N 31°11' E 122°48'0 0.1
2018-May-04 09:10N 31°11' E 122°48'0 0.1
2018-May-04 08:58N 31°11' E 122°48'0 0.0
2018-May-04 08:28N 31°11' E 122°48'0 0.1
2018-May-04 07:55N 31°11' E 122°48'0 0.1
2018-May-04 07:19N 31°11' E 122°48'0 0.1
2018-May-04 06:52N 31°11' E 122°48'0 0.1
2018-May-04 06:16N 31°11' E 122°48'0 0.0
2018-May-04 05:58N 31°11' E 122°48'0 0.1
2018-May-04 05:28N 31°11' E 122°47'0 0.1
2018-May-04 04:58N 31°11' E 122°47'0 0.0
2018-May-04 04:28N 31°11' E 122°47'0 0.0
2018-May-04 03:58N 31°11' E 122°47'0 0.0
2018-May-04 03:28N 31°11' E 122°47'0 0.0
2018-May-04 02:58N 31°11' E 122°47'0 0.0
2018-May-04 02:28N 31°11' E 122°47'0 0.0
2018-May-04 01:58N 31°11' E 122°47'0 0.3
2018-May-04 01:28N 31°11' E 122°48'0 0.2
2018-May-04 00:58N 31°11' E 122°48'0 0.1
2018-May-04 00:28N 31°11' E 122°48'0 0.0
2018-May-03 23:58N 31°11' E 122°48'0 0.2
2018-May-03 23:28N 31°11' E 122°48'0 0.1
2018-May-03 22:58N 31°11' E 122°48'0 0.0
2018-May-03 22:25N 31°11' E 122°48'0 0.1
2018-May-03 21:58N 31°11' E 122°48'0 0.0
2018-May-03 21:28N 31°11' E 122°48'0 0.0
2018-May-03 20:58N 31°11' E 122°48'0 0.1
2018-May-03 20:28N 31°11' E 122°48'0 0.0
2018-May-03 19:55N 31°11' E 122°48'0 0.0
2018-May-03 19:28N 31°11' E 122°48'0 0.2
2018-May-03 18:58N 31°11' E 122°48'0 0.1
2018-May-03 18:25N 31°11' E 122°47'0 0.1
2018-May-03 17:58N 31°11' E 122°47'0 0.0
2018-May-03 17:28N 31°11' E 122°47'0 0.1
2018-May-03 16:52N 31°11' E 122°47'0 0.0
2018-May-03 16:28N 31°11' E 122°47'0 0.1
2018-May-03 15:49N 31°11' E 122°47'0 0.0
2018-May-03 15:28N 31°11' E 122°47'0 0.1
2018-May-03 10:10N 31°11' E 122°48'0 0.1
2018-May-03 09:43N 31°11' E 122°48'0 0.0
2018-May-03 09:28N 31°11' E 122°48'0 0.1
2018-May-03 08:52N 31°11' E 122°48'0 0.1
2018-May-03 08:28N 31°11' E 122°48'0 0.1
2018-May-03 07:58N 31°11' E 122°48'0 0.1
2018-May-03 07:22N 31°11' E 122°48'0 0.0
2018-May-03 06:52N 31°11' E 122°48'0 0.1
2018-May-03 06:28N 31°11' E 122°48'0 0.1
2018-May-03 05:52N 31°11' E 122°48'0 0.0
2018-May-03 05:28N 31°11' E 122°48'0 0.1
2018-May-03 04:58N 31°11' E 122°47'0 0.2
2018-May-03 04:16N 31°11' E 122°47'0 0.0
2018-May-03 03:52N 31°11' E 122°47'0 0.0
2018-May-03 03:28N 31°11' E 122°47'0 0.1
2018-May-03 02:52N 31°11' E 122°47'0 0.0
2018-May-03 02:25N 31°11' E 122°47'1 0.3
2018-May-03 00:00N 31°11' E 122°48'  
Track history (hours):
 
Tides and Currents Weather Stations Pressure Air Temp Water Temp Dewpoint Dewpoint Depression Visibility Wind Speed Wind Dir Waves Ship Positions

Ksl Seville

Last reported at 2018-May-12 15:41 UTC. Time now 2018-May-23 15:11 UTC.
Position N 26°51' E 123°41'.
Warning: this ship's position is 10 days out of date.

Length 292 m; draft 7.7 m.

Type: Cargo ship. MMSI: 477289700.

Date/timePositionNaut miles runAvg speedWind from/ knotsBaromVisibWave heightAir tempDewpointWater temp
2018-May-12 15:41N 26°51' E 123°41'213.9
2018-May-12 15:30N 26°53' E 123°40'713.9
2018-May-12 15:00N 26°59' E 123°37'  
2018-May-09 14:36N 31°04' E 122°30'1 4.8
2018-May-09 14:25N 31°05' E 122°29'3 6.6
2018-May-09 14:00N 31°06' E 122°26'611.9
2018-May-09 13:30N 31°06' E 122°19'713.8
2018-May-09 13:00N 31°10' E 122°12'714.5
2018-May-09 12:30N 31°14' E 122°06'814.5
2018-May-09 11:59N 31°15' E 121°57'714.4
2018-May-09 11:30N 31°17' E 121°49'610.6
2018-May-09 10:54N 31°19' E 121°42'13 8.0
2018-May-09 09:16N 31°26' E 121°29'1 4.6
2018-May-09 08:56N 31°27' E 121°28'3 6.3
2018-May-09 08:28N 31°30' E 121°26'4 8.6
2018-May-09 08:00N 31°32' E 121°22'510.3
2018-May-09 07:30N 31°35' E 121°17'5 9.6
2018-May-09 07:00N 31°39' E 121°13'4 9.0
2018-May-09 06:30N 31°42' E 121°09'5 8.9
2018-May-09 06:00N 31°45' E 121°05'5 8.1
2018-May-09 05:20N 31°47' E 120°59'3 9.2
2018-May-09 05:00N 31°47' E 120°56'  
2018-May-06 00:46N 31°46' E 121°03'310.0
2018-May-06 00:30N 31°45' E 121°06'4 7.8
2018-May-06 00:00N 31°42' E 121°09'611.4
2018-May-05 23:30N 31°38' E 121°15'2 2.4
2018-May-05 22:51N 31°38' E 121°16'0 0.3
2018-May-05 22:27N 31°38' E 121°16'0 0.1
2018-May-05 21:57N 31°38' E 121°16'0 0.0
2018-May-05 21:30N 31°38' E 121°16'0 0.0
2018-May-05 21:00N 31°38' E 121°16'0 0.0
2018-May-05 20:27N 31°38' E 121°16'0 0.0
2018-May-05 20:00N 31°38' E 121°16'0 0.0
2018-May-05 19:30N 31°38' E 121°16'0 0.1
2018-May-05 19:00N 31°38' E 121°16'0 0.0
2018-May-05 18:30N 31°38' E 121°16'0 0.0
2018-May-05 17:57N 31°38' E 121°16'0 0.3
2018-May-05 17:30N 31°38' E 121°16'0 0.4
2018-May-05 17:00N 31°38' E 121°16'0 0.1
2018-May-05 16:27N 31°38' E 121°16'0 0.0
2018-May-05 16:00N 31°38' E 121°16'0 0.0
2018-May-05 15:30N 31°38' E 121°16'0 0.0
2018-May-05 15:00N 31°38' E 121°16'0 0.0
2018-May-05 14:30N 31°38' E 121°16'0 0.0
2018-May-05 13:57N 31°38' E 121°16'0 0.0
2018-May-05 13:30N 31°38' E 121°16'0 0.0
2018-May-05 12:57N 31°38' E 121°16'0 0.0
2018-May-05 12:27N 31°38' E 121°16'0 0.0
2018-May-05 12:00N 31°38' E 121°16'0 0.1
2018-May-05 11:30N 31°38' E 121°16'0 0.1
2018-May-05 11:00N 31°38' E 121°16'0 0.3
2018-May-05 10:27N 31°38' E 121°16'0 0.3
2018-May-05 09:57N 31°38' E 121°16'0 0.1
2018-May-05 09:27N 31°38' E 121°16'0 0.7
2018-May-05 09:01N 31°38' E 121°16'3 6.9
2018-May-05 08:30N 31°35' E 121°18'612.1
2018-May-05 08:00N 31°31' E 121°24'611.4
2018-May-05 07:30N 31°27' E 121°29'5 9.1
2018-May-05 07:00N 31°24' E 121°33'4 8.6
2018-May-05 06:30N 31°22' E 121°38'16 9.5
2018-May-05 04:50N 31°16' E 121°55'18 9.6
2018-May-05 02:59N 31°09' E 122°14'4 6.8
2018-May-05 02:24N 31°07' E 122°17'3 6.5
2018-May-05 02:00N 31°06' E 122°20'5 9.6
2018-May-05 01:30N 31°06' E 122°26'4 6.7
2018-May-05 00:58N 31°07' E 122°30'3 7.2
2018-May-05 00:30N 31°07' E 122°34'3 5.1
2018-May-04 23:54N 31°07' E 122°38'2 6.2
2018-May-04 23:30N 31°07' E 122°40'3 6.5
2018-May-04 23:00N 31°07' E 122°44'4 7.2
2018-May-04 22:23N 31°11' E 122°47'0 0.5
2018-May-04 21:28N 31°11' E 122°48'0 0.1
2018-May-04 20:55N 31°11' E 122°48'0 0.1
2018-May-04 20:28N 31°11' E 122°48'0 0.1
2018-May-04 19:58N 31°11' E 122°47'0 0.1
2018-May-04 19:28N 31°11' E 122°47'0 0.1
2018-May-04 18:58N 31°11' E 122°47'0 0.0
2018-May-04 18:28N 31°11' E 122°47'0 0.1
2018-May-04 17:55N 31°11' E 122°47'0 0.1
2018-May-04 17:22N 31°11' E 122°47'0 0.0
2018-May-04 16:58N 31°11' E 122°47'0 0.1
2018-May-04 16:28N 31°11' E 122°47'0 0.2
2018-May-04 15:55N 31°11' E 122°47'0 0.0
2018-May-04 15:25N 31°11' E 122°47'0 0.0
2018-May-04 14:58N 31°11' E 122°47'0 0.1
2018-May-04 14:28N 31°11' E 122°47'0 0.3
2018-May-04 13:58N 31°11' E 122°47'0 0.3
2018-May-04 13:25N 31°11' E 122°47'0 0.2
2018-May-04 12:58N 31°11' E 122°47'0 0.0
2018-May-04 12:04N 31°11' E 122°47'0 0.1
2018-May-04 10:52N 31°11' E 122°48'0 0.1
2018-May-04 09:31N 31°11' E 122°48'0 0.1
2018-May-04 09:10N 31°11' E 122°48'0 0.1
2018-May-04 08:58N 31°11' E 122°48'0 0.0
2018-May-04 08:28N 31°11' E 122°48'0 0.1
2018-May-04 07:55N 31°11' E 122°48'0 0.1
2018-May-04 07:19N 31°11' E 122°48'0 0.1
2018-May-04 06:52N 31°11' E 122°48'0 0.1
2018-May-04 06:16N 31°11' E 122°48'0 0.0
2018-May-04 05:58N 31°11' E 122°48'0 0.1
2018-May-04 05:28N 31°11' E 122°47'0 0.1
2018-May-04 04:58N 31°11' E 122°47'0 0.0
2018-May-04 04:28N 31°11' E 122°47'0 0.0
2018-May-04 03:58N 31°11' E 122°47'0 0.0
2018-May-04 03:28N 31°11' E 122°47'0 0.0
2018-May-04 02:58N 31°11' E 122°47'0 0.0
2018-May-04 02:28N 31°11' E 122°47'0 0.0
2018-May-04 01:58N 31°11' E 122°47'0 0.3
2018-May-04 01:28N 31°11' E 122°48'0 0.2
2018-May-04 00:58N 31°11' E 122°48'0 0.1
2018-May-04 00:28N 31°11' E 122°48'0 0.0
2018-May-03 23:58N 31°11' E 122°48'0 0.2
2018-May-03 23:28N 31°11' E 122°48'0 0.1
2018-May-03 22:58N 31°11' E 122°48'0 0.0
2018-May-03 22:25N 31°11' E 122°48'0 0.1
2018-May-03 21:58N 31°11' E 122°48'0 0.0
2018-May-03 21:28N 31°11' E 122°48'0 0.0
2018-May-03 20:58N 31°11' E 122°48'0 0.1
2018-May-03 20:28N 31°11' E 122°48'0 0.0
2018-May-03 19:55N 31°11' E 122°48'0 0.0
2018-May-03 19:28N 31°11' E 122°48'0 0.2
2018-May-03 18:58N 31°11' E 122°48'0 0.1
2018-May-03 18:25N 31°11' E 122°47'0 0.1
2018-May-03 17:58N 31°11' E 122°47'0 0.0
2018-May-03 17:28N 31°11' E 122°47'0 0.1
2018-May-03 16:52N 31°11' E 122°47'0 0.0
2018-May-03 16:28N 31°11' E 122°47'0 0.1
2018-May-03 15:49N 31°11' E 122°47'0 0.0
2018-May-03 15:28N 31°11' E 122°47'0 0.1
2018-May-03 10:10N 31°11' E 122°48'0 0.1
2018-May-03 09:43N 31°11' E 122°48'0 0.0
2018-May-03 09:28N 31°11' E 122°48'0 0.1
2018-May-03 08:52N 31°11' E 122°48'0 0.1
2018-May-03 08:28N 31°11' E 122°48'0 0.1
2018-May-03 07:58N 31°11' E 122°48'0 0.1
2018-May-03 07:22N 31°11' E 122°48'0 0.0
2018-May-03 06:52N 31°11' E 122°48'0 0.1
2018-May-03 06:28N 31°11' E 122°48'0 0.1
2018-May-03 05:52N 31°11' E 122°48'0 0.0
2018-May-03 05:28N 31°11' E 122°48'0 0.1
2018-May-03 04:58N 31°11' E 122°47'0 0.2
2018-May-03 04:16N 31°11' E 122°47'0 0.0
2018-May-03 03:52N 31°11' E 122°47'0 0.0
2018-May-03 03:28N 31°11' E 122°47'0 0.1
2018-May-03 02:52N 31°11' E 122°47'0 0.0
2018-May-03 02:25N 31°11' E 122°47'1 0.3
2018-May-03 00:00N 31°11' E 122°48'  

Dump ship's entire track history